Time;durP1;ratioP1;P1;durP2;ratioP2;P2;SDS_P1;SDS_P2;PMS_P1;PMS_P2;Temp;Humidity;BMP_temperature;BMP_pressure;BME280_temperature;BME280_humidity;BME280_pressure;Samples;Min_cycle;Max_cycle;Signal;HPM_P1;HPM_P2
2022/07/03 00:00:00;;;;;;;3.15;2.80;;;17.10;99.90;;;;;;5074263;28;20212;-51
2022/07/03 00:02:29;;;;;;;2.00;1.80;;;17.10;99.90;;;;;;5073569;28;20711;-51
2022/07/03 00:04:57;;;;;;;2.10;1.90;;;17.00;99.90;;;;;;5080100;28;20197;-51
2022/07/03 00:07:25;;;;;;;2.58;2.00;;;17.00;99.90;;;;;;5091276;28;20200;-51
2022/07/03 00:09:53;;;;;;;2.10;1.95;;;17.00;99.90;;;;;;5091344;28;20550;-51
2022/07/03 00:12:21;;;;;;;2.53;2.33;;;16.90;99.90;;;;;;5090895;28;20250;-51
2022/07/03 00:14:50;;;;;;;4.18;2.58;;;16.90;99.90;;;;;;5088530;28;20204;-51
2022/07/03 00:17:18;;;;;;;3.00;2.55;;;16.90;99.90;;;;;;5090527;28;20262;-51
2022/07/03 00:19:48;;;;;;;2.70;2.30;;;16.80;99.90;;;;;;5086255;28;20281;-51
2022/07/03 00:22:17;;;;;;;2.00;1.83;;;16.80;99.90;;;;;;5088524;28;20236;-51
2022/07/03 00:24:48;;;;;;;1.98;1.83;;;16.80;99.90;;;;;;5090725;28;20235;-51
2022/07/03 00:27:18;;;;;;;2.10;1.95;;;16.80;99.90;;;;;;5090937;28;20216;-51
2022/07/03 00:29:47;;;;;;;2.70;1.85;;;16.80;99.90;;;;;;5091359;28;20242;-51
2022/07/03 00:32:20;;;;;;;2.00;1.67;;;16.80;99.90;;;;;;5091099;28;20228;-51
2022/07/03 00:34:52;;;;;;;2.67;2.40;;;16.70;99.90;;;;;;5088618;28;20563;-51
2022/07/03 00:37:20;;;;;;;2.30;2.08;;;16.70;99.90;;;;;;5091302;28;20204;-51
2022/07/03 00:39:49;;;;;;;2.05;1.95;;;16.70;99.90;;;;;;5090811;28;20205;-51
2022/07/03 00:42:18;;;;;;;2.53;1.80;;;16.60;99.90;;;;;;5091034;28;20349;-51
2022/07/03 00:44:48;;;;;;;2.15;1.83;;;16.60;99.90;;;;;;5079113;28;20221;-51
2022/07/03 00:47:18;;;;;;;5.03;2.10;;;16.50;99.90;;;;;;5088978;28;20716;-52
2022/07/03 00:49:49;;;;;;;3.53;2.45;;;16.50;99.90;;;;;;5090882;28;20716;-51
2022/07/03 00:52:20;;;;;;;2.50;2.30;;;16.50;99.90;;;;;;5089505;28;20697;-51
2022/07/03 00:54:53;;;;;;;4.13;2.13;;;16.50;99.90;;;;;;5097252;28;20249;-51
2022/07/03 00:57:22;;;;;;;2.80;2.15;;;16.40;99.90;;;;;;5101579;28;20268;-51
2022/07/03 00:59:51;;;;;;;3.13;1.80;;;16.40;99.90;;;;;;5111135;28;20199;-51
2022/07/03 01:02:29;;;;;;;2.30;2.13;;;16.30;99.90;;;;;;5107766;28;20223;-51
2022/07/03 01:05:08;;;;;;;1.77;1.67;;;16.30;99.90;;;;;;5098725;28;20207;-51
2022/07/03 01:07:47;;;;;;;3.17;2.15;;;16.30;99.90;;;;;;5111006;28;20203;-51
2022/07/03 01:10:23;;;;;;;3.35;2.15;;;16.30;99.90;;;;;;5105470;28;20280;-51
2022/07/03 01:12:57;;;;;;;2.20;2.00;;;16.20;99.90;;;;;;5111040;28;20248;-51
2022/07/03 01:15:37;;;;;;;2.75;1.85;;;16.10;99.90;;;;;;5111169;28;20199;-51
2022/07/03 01:18:20;;;;;;;2.13;1.90;;;16.10;99.90;;;;;;5110596;28;20265;-51
2022/07/03 01:20:54;;;;;;;2.80;2.08;;;16.10;99.90;;;;;;5110741;28;20657;-51
2022/07/03 01:23:33;;;;;;;2.20;2.10;;;16.10;99.90;;;;;;5110003;28;21045;-51
2022/07/03 01:26:04;;;;;;;2.45;2.25;;;16.10;99.90;;;;;;5111094;28;20204;-51
2022/07/03 01:28:35;;;;;;;2.63;1.65;;;16.10;99.90;;;;;;5110504;28;20199;-51
2022/07/03 01:31:04;;;;;;;3.20;2.00;;;16.10;99.90;;;;;;5096255;28;20219;-51
2022/07/03 01:33:33;;;;;;;2.22;2.10;;;16.00;99.90;;;;;;5100083;28;20200;-51
2022/07/03 01:36:05;;;;;;;1.95;1.85;;;16.00;99.90;;;;;;5110056;28;20256;-51
2022/07/03 01:38:35;;;;;;;3.13;2.20;;;16.00;99.90;;;;;;5110098;28;20203;-51
2022/07/03 01:41:06;;;;;;;2.40;1.98;;;16.00;99.90;;;;;;5110747;28;20579;-50
2022/07/03 01:43:35;;;;;;;5.47;2.00;;;16.00;99.90;;;;;;5110664;28;20237;-51
2022/07/03 01:46:05;;;;;;;2.10;1.90;;;16.00;99.90;;;;;;5110410;28;20660;-51
2022/07/03 01:48:35;;;;;;;2.20;2.00;;;15.90;99.90;;;;;;5109822;28;20208;-51
2022/07/03 01:51:04;;;;;;;2.03;1.92;;;15.90;99.90;;;;;;5110280;28;20711;-51
2022/07/03 01:53:32;;;;;;;1.90;1.65;;;15.80;99.90;;;;;;5109766;28;20207;-51
2022/07/03 01:56:03;;;;;;;2.03;1.85;;;15.70;99.90;;;;;;5110053;28;20259;-51
2022/07/03 01:58:32;;;;;;;3.05;1.98;;;15.70;99.90;;;;;;5109819;28;20216;-51
2022/07/03 02:01:03;;;;;;;2.22;1.70;;;15.70;99.90;;;;;;5106128;28;20257;-51
2022/07/03 02:03:34;;;;;;;2.28;1.88;;;15.60;99.90;;;;;;5109558;28;20776;-50
2022/07/03 02:06:06;;;;;;;2.33;2.13;;;15.60;99.90;;;;;;5096776;28;20208;-50
2022/07/03 02:08:46;;;;;;;2.28;2.00;;;15.60;99.90;;;;;;5081159;28;20601;-51
2022/07/03 02:11:36;;;;;;;2.67;1.90;;;15.60;99.90;;;;;;5102822;28;20707;-51
2022/07/03 02:14:12;;;;;;;2.38;1.90;;;15.60;99.90;;;;;;5109865;28;20245;-50
2022/07/03 02:16:54;;;;;;;2.27;2.00;;;15.60;99.90;;;;;;5109432;28;20207;-51
2022/07/03 02:19:31;;;;;;;4.07;2.13;;;15.60;99.90;;;;;;5110155;28;20260;-50
2022/07/03 02:22:00;;;;;;;1.83;1.70;;;15.60;99.90;;;;;;5109605;28;20276;-50
2022/07/03 02:24:30;;;;;;;2.05;1.85;;;15.60;99.90;;;;;;5109900;28;20212;-50
2022/07/03 02:27:05;;;;;;;3.17;1.90;;;15.50;99.90;;;;;;5109508;28;20211;-51
2022/07/03 02:29:36;;;;;;;2.08;1.90;;;15.50;99.90;;;;;;5109986;28;20271;-51
2022/07/03 02:32:08;;;;;;;2.10;2.00;;;15.50;99.90;;;;;;5109427;28;20224;-51
2022/07/03 02:34:36;;;;;;;3.20;2.13;;;15.50;99.90;;;;;;5109993;28;20672;-51
2022/07/03 02:37:12;;;;;;;2.33;2.00;;;15.40;99.90;;;;;;5109668;28;20695;-51
2022/07/03 02:39:46;;;;;;;2.40;2.10;;;15.40;99.90;;;;;;5108928;28;20207;-51
2022/07/03 02:42:25;;;;;;;2.03;1.90;;;15.40;99.90;;;;;;5109608;28;20239;-51
2022/07/03 02:44:58;;;;;;;2.67;2.00;;;15.40;99.90;;;;;;5109425;28;20663;-51
2022/07/03 02:47:36;;;;;;;3.38;2.10;;;15.40;99.90;;;;;;5109252;28;20203;-51
2022/07/03 02:50:05;;;;;;;2.35;2.15;;;15.40;99.90;;;;;;5111263;28;20223;-51
2022/07/03 02:52:43;;;;;;;3.77;2.33;;;15.40;99.90;;;;;;5113815;28;20280;-51
2022/07/03 02:55:33;;;;;;;2.27;2.00;;;15.30;99.90;;;;;;5114960;28;20741;-50
2022/07/03 02:58:26;;;;;;;2.13;1.93;;;15.20;99.90;;;;;;5116174;28;20204;-50
2022/07/03 03:00:59;;;;;;;2.03;1.77;;;15.20;99.90;;;;;;5113310;28;20720;-51
2022/07/03 03:03:30;;;;;;;3.97;2.10;;;15.10;99.90;;;;;;5113563;28;20211;-51
2022/07/03 03:06:03;;;;;;;2.37;2.00;;;15.10;99.90;;;;;;5113489;28;20207;-50
2022/07/03 03:08:37;;;;;;;2.20;2.00;;;15.10;99.90;;;;;;5112364;28;20256;-51
2022/07/03 03:11:09;;;;;;;2.17;2.00;;;15.10;99.90;;;;;;5108034;28;20228;-51
2022/07/03 03:13:37;;;;;;;2.27;2.07;;;15.10;99.90;;;;;;5108094;28;20699;-51
2022/07/03 03:16:08;;;;;;;2.20;2.00;;;15.10;99.90;;;;;;5105107;28;20212;-51
2022/07/03 03:18:38;;;;;;;2.87;1.90;;;15.10;99.90;;;;;;5112877;28;20681;-51
2022/07/03 03:21:09;;;;;;;3.27;2.47;;;15.10;99.90;;;;;;5112994;28;20824;-51
2022/07/03 03:23:48;;;;;;;2.10;2.00;;;15.10;99.90;;;;;;5112554;28;20736;-51
2022/07/03 03:26:19;;;;;;;2.40;1.97;;;15.10;99.90;;;;;;5112276;28;20256;-51
2022/07/03 03:28:48;;;;;;;2.13;1.93;;;15.00;99.90;;;;;;5112612;28;20284;-51
2022/07/03 03:31:18;;;;;;;2.00;1.90;;;15.00;99.90;;;;;;5112248;28;20239;-51
2022/07/03 03:33:48;;;;;;;3.37;2.27;;;15.00;99.90;;;;;;5112842;28;20730;-51
2022/07/03 03:36:18;;;;;;;2.43;2.27;;;15.00;99.90;;;;;;5113187;28;20257;-51
2022/07/03 03:38:48;;;;;;;3.83;2.30;;;15.00;99.90;;;;;;5111341;28;20748;-51
2022/07/03 03:41:16;;;;;;;3.63;2.23;;;15.10;99.90;;;;;;5112019;28;20276;-51
2022/07/03 03:43:45;;;;;;;1.87;1.77;;;15.10;99.90;;;;;;5112090;28;20223;-51
2022/07/03 03:46:15;;;;;;;3.33;2.23;;;15.10;99.90;;;;;;5112430;28;20237;-51
2022/07/03 03:48:45;;;;;;;3.03;2.10;;;15.10;99.90;;;;;;5108064;28;20200;-51
2022/07/03 03:51:13;;;;;;;2.80;2.20;;;15.10;99.90;;;;;;5085017;28;20231;-51
2022/07/03 03:53:41;;;;;;;3.23;2.00;;;15.10;99.90;;;;;;5108540;28;20197;-51
2022/07/03 03:56:12;;;;;;;2.00;1.80;;;15.10;99.90;;;;;;5111566;28;20264;-51
2022/07/03 03:58:43;;;;;;;2.83;2.07;;;15.10;99.90;;;;;;5112173;28;20203;-51
2022/07/03 04:01:12;;;;;;;2.13;1.93;;;15.10;99.90;;;;;;5110266;28;20647;-51
2022/07/03 04:03:41;;;;;;;2.93;2.47;;;15.20;99.90;;;;;;5112100;28;20266;-51
2022/07/03 04:06:11;;;;;;;2.50;2.27;;;15.20;99.90;;;;;;5112338;28;20296;-51
2022/07/03 04:08:39;;;;;;;2.43;2.17;;;15.20;99.90;;;;;;5110103;28;20211;-51
2022/07/03 04:11:07;;;;;;;2.47;2.07;;;15.20;99.90;;;;;;5108329;28;20609;-51
2022/07/03 04:13:35;;;;;;;2.80;2.30;;;15.30;99.90;;;;;;5111622;28;20551;-50
2022/07/03 04:16:03;;;;;;;2.15;2.00;;;15.50;99.90;;;;;;5112402;28;20207;-51
2022/07/03 04:18:31;;;;;;;2.08;1.90;;;16.50;99.90;;;;;;5111326;28;20212;-50
2022/07/03 04:21:00;;;;;;;2.08;1.73;;;17.60;99.90;;;;;;5112118;28;20227;-51
2022/07/03 04:23:29;;;;;;;1.67;1.58;;;18.40;99.90;;;;;;5111040;28;20718;-51
2022/07/03 04:26:03;;;;;;;2.00;1.83;;;19.00;99.90;;;;;;5111803;28;20207;-51
2022/07/03 04:28:31;;;;;;;3.25;1.65;;;19.50;99.90;;;;;;5111751;28;20214;-51
2022/07/03 04:31:00;;;;;;;2.20;2.00;;;19.90;99.90;;;;;;5110460;28;20280;-52
2022/07/03 04:33:28;;;;;;;2.00;1.90;;;20.20;99.90;;;;;;5111263;28;20208;-52
2022/07/03 04:35:56;;;;;;;1.65;1.55;;;20.70;99.90;;;;;;5111623;28;20737;-52
2022/07/03 04:38:24;;;;;;;1.70;1.60;;;20.90;99.90;;;;;;5111361;28;20211;-52
2022/07/03 04:40:53;;;;;;;2.80;1.75;;;21.30;99.90;;;;;;5111778;28;20292;-51
2022/07/03 04:43:21;;;;;;;3.80;2.03;;;21.80;99.90;;;;;;5110869;28;20231;-52
2022/07/03 04:45:49;;;;;;;1.83;1.52;;;21.90;99.90;;;;;;5101572;28;20826;-51
2022/07/03 04:48:18;;;;;;;2.00;1.80;;;22.20;99.90;;;;;;5080914;28;20275;-51
2022/07/03 04:50:46;;;;;;;2.70;2.03;;;22.40;99.90;;;;;;5090649;28;20232;-51
2022/07/03 04:53:14;;;;;;;3.42;1.60;;;22.80;99.90;;;;;;5089759;28;20205;-51
2022/07/03 04:55:42;;;;;;;3.33;1.73;;;22.90;99.90;;;;;;5090353;28;20208;-52
2022/07/03 04:58:11;;;;;;;2.33;1.88;;;23.20;99.90;;;;;;5090150;28;20208;-52
2022/07/03 05:00:40;;;;;;;2.33;2.13;;;23.50;99.90;;;;;;5090639;28;20274;-51
2022/07/03 05:03:11;;;;;;;4.70;3.25;;;23.80;99.90;;;;;;5090416;28;20242;-51
2022/07/03 05:05:39;;;;;;;3.85;2.30;;;23.90;99.90;;;;;;5090817;28;20208;-51
2022/07/03 05:08:07;;;;;;;2.47;1.80;;;24.20;99.90;;;;;;5090315;28;20238;-51
2022/07/03 05:10:35;;;;;;;1.63;1.52;;;24.50;99.90;;;;;;5090306;28;20220;-51
2022/07/03 05:13:03;;;;;;;1.90;1.70;;;24.90;99.90;;;;;;5103882;28;20199;-52
2022/07/03 05:15:33;;;;;;;2.55;1.75;;;25.10;99.90;;;;;;5110848;28;20211;-51
2022/07/03 05:18:01;;;;;;;1.67;1.58;;;25.40;99.90;;;;;;5110469;28;20219;-52
2022/07/03 05:20:30;;;;;;;1.70;1.50;;;25.80;99.90;;;;;;5110704;28;20227;-51
2022/07/03 05:22:59;;;;;;;3.65;1.55;;;25.90;99.90;;;;;;5109139;28;20276;-52
2022/07/03 05:25:29;;;;;;;1.92;1.75;;;26.30;99.90;;;;;;5110538;28;20718;-52
2022/07/03 05:27:58;;;;;;;2.78;1.60;;;26.40;99.90;;;;;;5110926;28;20212;-52
2022/07/03 05:30:27;;;;;;;1.58;1.48;;;26.50;99.90;;;;;;5106927;28;20252;-52
2022/07/03 05:32:56;;;;;;;2.00;1.73;;;26.80;99.90;;;;;;5110130;28;20207;-52
2022/07/03 05:35:24;;;;;;;1.55;1.42;;;27.20;99.40;;;;;;5110480;28;20203;-52
2022/07/03 05:37:52;;;;;;;1.45;1.35;;;27.40;99.40;;;;;;5109929;28;20208;-52
2022/07/03 05:40:20;;;;;;;1.92;1.52;;;27.80;99.00;;;;;;5110579;28;20204;-51
2022/07/03 05:42:48;;;;;;;2.95;1.60;;;27.80;99.20;;;;;;5110125;28;20222;-52
2022/07/03 05:45:16;;;;;;;1.67;1.58;;;27.70;99.90;;;;;;5110961;28;20256;-52
2022/07/03 05:47:44;;;;;;;1.50;1.40;;;27.80;99.90;;;;;;5109579;28;20203;-52
2022/07/03 05:50:14;;;;;;;1.80;1.50;;;28.00;99.10;;;;;;5110381;28;20238;-52
2022/07/03 05:52:42;;;;;;;1.75;1.60;;;28.20;98.60;;;;;;5110139;28;20199;-51
2022/07/03 05:55:10;;;;;;;2.55;1.70;;;28.50;97.50;;;;;;5088852;28;20204;-52
2022/07/03 05:57:38;;;;;;;1.50;1.17;;;28.70;97.40;;;;;;5077999;28;20250;-52
2022/07/03 06:00:07;;;;;;;1.55;1.48;;;28.70;97.80;;;;;;5087650;28;20254;-52
2022/07/03 06:02:35;;;;;;;1.50;1.40;;;29.00;97.50;;;;;;5089043;28;20204;-52
2022/07/03 06:05:04;;;;;;;1.70;1.60;;;29.10;97.10;;;;;;5087467;28;20641;-51
2022/07/03 06:07:33;;;;;;;3.85;1.33;;;29.10;97.40;;;;;;5088365;28;20207;-51
2022/07/03 06:10:01;;;;;;;1.60;1.50;;;29.40;97.30;;;;;;5088382;28;20204;-52
2022/07/03 06:12:29;;;;;;;1.35;1.20;;;29.50;95.90;;;;;;5089980;28;20333;-52
2022/07/03 06:14:57;;;;;;;1.67;1.58;;;29.70;95.20;;;;;;5085298;28;20630;-51
2022/07/03 06:17:29;;;;;;;1.50;1.40;;;29.80;95.60;;;;;;5084716;28;20216;-52
2022/07/03 06:19:58;;;;;;;1.67;1.42;;;30.00;94.50;;;;;;5087978;28;20205;-52
2022/07/03 06:22:26;;;;;;;2.15;1.10;;;30.30;95.20;;;;;;5088403;28;20228;-52
2022/07/03 06:24:55;;;;;;;5.03;1.50;;;30.80;92.60;;;;;;5087022;28;20232;-52
2022/07/03 06:27:23;;;;;;;1.50;1.40;;;30.60;93.90;;;;;;5088436;28;20212;-51
2022/07/03 06:29:52;;;;;;;1.15;1.13;;;30.60;93.30;;;;;;5087799;28;20242;-52
2022/07/03 06:32:20;;;;;;;2.35;1.60;;;30.30;91.20;;;;;;5089051;28;20227;-50
2022/07/03 06:34:48;;;;;;;1.65;1.50;;;30.40;91.30;;;;;;5089382;28;20208;-51
2022/07/03 06:37:16;;;;;;;2.42;1.40;;;30.00;90.90;;;;;;5088559;28;20664;-51
2022/07/03 06:39:45;;;;;;;2.15;1.30;;;30.00;90.70;;;;;;5088728;28;20276;-52
2022/07/03 06:42:14;;;;;;;1.50;1.33;;;29.80;90.40;;;;;;5088320;28;20311;-52
2022/07/03 06:44:44;;;;;;;2.00;1.30;;;29.70;90.70;;;;;;5088817;28;20223;-52
2022/07/03 06:47:19;;;;;;;2.88;1.63;;;29.90;92.10;;;;;;5088772;28;20250;-51
2022/07/03 06:49:47;;;;;;;1.67;1.50;;;29.90;91.10;;;;;;5087871;28;20250;-52
2022/07/03 06:52:15;;;;;;;1.80;1.30;;;30.10;91.50;;;;;;5088591;28;20296;-52
2022/07/03 06:54:44;;;;;;;3.55;1.70;;;30.30;91.00;;;;;;5087506;28;20281;-52
2022/07/03 06:57:14;;;;;;;1.50;1.40;;;30.50;90.10;;;;;;5088821;28;20212;-51
2022/07/03 06:59:42;;;;;;;1.52;1.42;;;30.70;90.20;;;;;;5085712;28;20208;-52
2022/07/03 07:02:11;;;;;;;1.85;1.40;;;30.90;89.80;;;;;;5088233;28;20234;-52
2022/07/03 07:04:39;;;;;;;4.20;1.75;;;30.90;89.10;;;;;;5080683;28;20717;-51
2022/07/03 07:07:07;;;;;;;2.83;1.63;;;31.10;89.40;;;;;;5088153;28;20208;-51
2022/07/03 07:09:35;;;;;;;2.35;1.50;;;31.10;90.20;;;;;;5087761;28;20200;-52
2022/07/03 07:12:03;;;;;;;1.98;1.50;;;30.90;90.10;;;;;;5091113;28;20244;-51
2022/07/03 07:14:33;;;;;;;2.92;1.80;;;30.80;89.40;;;;;;5087869;28;20204;-52
2022/07/03 07:17:01;;;;;;;1.65;1.55;;;31.00;90.30;;;;;;5090478;28;20253;-52
2022/07/03 07:19:29;;;;;;;1.80;1.60;;;31.10;89.50;;;;;;5086531;28;20200;-51
2022/07/03 07:21:57;;;;;;;1.40;1.30;;;31.20;88.10;;;;;;5087823;28;20281;-52
2022/07/03 07:24:25;;;;;;;3.45;1.60;;;31.10;89.00;;;;;;5087741;28;20310;-51
2022/07/03 07:26:53;;;;;;;2.40;1.73;;;31.20;88.60;;;;;;5079314;28;20253;-52
2022/07/03 07:29:21;;;;;;;1.70;1.60;;;31.00;88.80;;;;;;5077415;28;20204;-52
2022/07/03 07:31:51;;;;;;;1.73;1.63;;;31.20;89.60;;;;;;5077041;28;20273;-52
2022/07/03 07:34:19;;;;;;;1.92;1.70;;;31.00;87.70;;;;;;5085643;28;20215;-52
2022/07/03 07:36:47;;;;;;;1.90;1.70;;;31.40;89.40;;;;;;5088955;28;20252;-52
2022/07/03 07:39:15;;;;;;;1.85;1.50;;;31.30;89.00;;;;;;5090653;28;20730;-52
2022/07/03 07:41:43;;;;;;;1.67;1.58;;;31.50;89.50;;;;;;5091695;28;20220;-52
2022/07/03 07:44:12;;;;;;;1.55;1.45;;;31.50;88.10;;;;;;5089654;28;20633;-53
2022/07/03 07:46:46;;;;;;;1.58;1.48;;;31.60;89.60;;;;;;5087656;28;20199;-53
2022/07/03 07:49:15;;;;;;;1.42;1.33;;;31.60;89.20;;;;;;5088951;28;21321;-52
2022/07/03 07:51:44;;;;;;;1.48;1.30;;;31.70;89.90;;;;;;5088738;28;20638;-52
2022/07/03 07:54:12;;;;;;;2.35;1.60;;;31.80;88.70;;;;;;5085875;28;20691;-51
2022/07/03 07:56:40;;;;;;;1.90;1.50;;;32.00;86.20;;;;;;5089881;28;20202;-51
2022/07/03 07:59:08;;;;;;;1.38;1.27;;;31.90;87.00;;;;;;5093270;28;20238;-51
2022/07/03 08:07:14;;;;;;;1.45;1.35;;;31.70;90.00;;;;;;5039175;28;20247;-51
2022/07/03 08:09:42;;;;;;;4.28;1.63;;;31.60;89.80;;;;;;5087755;28;20199;-51
2022/07/03 08:12:10;;;;;;;1.70;1.60;;;31.50;88.80;;;;;;5090661;28;20255;-51
2022/07/03 08:14:39;;;;;;;1.98;1.73;;;31.00;89.70;;;;;;5090937;28;20578;-52
2022/07/03 08:17:07;;;;;;;2.00;1.90;;;30.60;90.70;;;;;;5094924;28;20208;-52
2022/07/03 08:19:36;;;;;;;1.33;1.23;;;30.30;90.70;;;;;;5093407;28;20204;-52
2022/07/03 08:22:05;;;;;;;2.15;1.38;;;30.10;91.80;;;;;;5091775;28;20224;-51
2022/07/03 08:24:33;;;;;;;1.60;1.50;;;30.10;92.30;;;;;;5095099;28;20673;-51
2022/07/03 08:27:01;;;;;;;2.40;1.70;;;30.10;91.40;;;;;;5091954;28;20200;-52
2022/07/03 08:29:29;;;;;;;1.55;1.30;;;30.00;92.10;;;;;;5091968;28;20976;-51
2022/07/03 08:32:04;;;;;;;2.28;1.65;;;29.80;91.10;;;;;;5095286;28;20231;-52
2022/07/03 08:34:32;;;;;;;1.63;1.50;;;29.90;91.80;;;;;;5091833;28;20688;-51
2022/07/03 08:37:02;;;;;;;1.98;1.48;;;29.80;91.90;;;;;;5092449;28;20207;-51
2022/07/03 08:39:30;;;;;;;1.88;1.70;;;29.70;92.50;;;;;;5088342;28;20208;-51
2022/07/03 08:41:59;;;;;;;1.80;1.70;;;29.70;92.00;;;;;;5089388;28;20232;-51
2022/07/03 08:44:28;;;;;;;2.13;1.85;;;29.90;92.70;;;;;;5091671;28;20265;-52
2022/07/03 08:46:57;;;;;;;1.83;1.70;;;29.80;91.70;;;;;;5096142;28;20208;-51
2022/07/03 08:49:26;;;;;;;7.05;1.70;;;29.90;92.10;;;;;;5090089;28;20278;-52
2022/07/03 08:51:55;;;;;;;2.30;1.45;;;29.40;90.40;;;;;;5094064;28;20227;-52
2022/07/03 08:54:25;;;;;;;1.42;1.33;;;29.40;91.10;;;;;;5090839;28;20204;-51
2022/07/03 08:56:53;;;;;;;2.13;1.70;;;29.40;91.10;;;;;;5088001;28;20250;-51
2022/07/03 08:59:24;;;;;;;1.58;1.48;;;29.50;90.40;;;;;;5089393;28;20196;-51
2022/07/03 09:01:53;;;;;;;2.20;1.35;;;29.40;90.50;;;;;;5089347;28;20278;-51
2022/07/03 09:04:22;;;;;;;3.00;1.60;;;29.30;91.40;;;;;;5089855;28;20200;-51
2022/07/03 09:06:51;;;;;;;2.65;1.70;;;29.50;91.10;;;;;;5090383;28;20220;-51
2022/07/03 09:09:24;;;;;;;2.03;1.33;;;29.40;92.20;;;;;;5089588;28;20314;-51
2022/07/03 09:11:53;;;;;;;2.33;1.58;;;29.50;91.90;;;;;;5090081;28;20289;-51
2022/07/03 09:14:21;;;;;;;1.92;1.58;;;29.20;91.30;;;;;;5090116;28;20204;-51
2022/07/03 09:16:55;;;;;;;2.15;1.55;;;29.40;91.70;;;;;;5090817;28;20254;-51
2022/07/03 09:19:43;;;;;;;2.42;1.70;;;29.40;92.10;;;;;;5087904;28;20737;-51
2022/07/03 09:22:21;;;;;;;1.50;1.40;;;29.40;92.00;;;;;;5087651;28;20224;-51
2022/07/03 09:24:51;;;;;;;2.00;1.30;;;29.60;91.20;;;;;;5087272;28;20273;-51
2022/07/03 09:27:22;;;;;;;2.20;1.50;;;29.60;90.60;;;;;;5078943;28;20208;-51
2022/07/03 09:30:09;;;;;;;2.45;1.30;;;29.50;90.90;;;;;;5081246;28;20208;-51
2022/07/03 09:32:43;;;;;;;3.47;1.67;;;29.50;90.40;;;;;;5084321;28;20794;-52
2022/07/03 09:35:17;;;;;;;3.05;1.70;;;29.40;91.20;;;;;;5085927;28;20204;-52
2022/07/03 09:37:53;;;;;;;2.67;1.55;;;29.50;92.50;;;;;;5085648;28;20692;-51
2022/07/03 09:40:23;;;;;;;3.67;1.58;;;29.40;89.70;;;;;;5087540;28;20213;-51
2022/07/03 09:43:01;;;;;;;1.52;1.42;;;29.40;88.80;;;;;;5085325;28;20274;-51
2022/07/03 09:45:50;;;;;;;1.52;1.42;;;29.30;90.00;;;;;;5088149;28;20288;-52
2022/07/03 09:48:23;;;;;;;2.50;1.33;;;29.20;89.10;;;;;;5088626;28;20219;-51
2022/07/03 09:51:19;;;;;;;3.42;1.80;;;29.20;91.10;;;;;;5088449;28;20312;-51
2022/07/03 09:53:53;;;;;;;1.70;1.50;;;29.40;92.10;;;;;;5084910;28;20287;-51
2022/07/03 09:56:27;;;;;;;1.85;1.27;;;29.60;91.30;;;;;;5087121;28;20208;-51
2022/07/03 09:59:04;;;;;;;1.65;1.13;;;29.80;90.50;;;;;;5087214;28;20246;-51
2022/07/03 10:01:32;;;;;;;2.80;1.45;;;29.90;90.20;;;;;;5086986;28;20220;-51
2022/07/03 10:04:13;;;;;;;4.05;1.90;;;30.00;90.50;;;;;;5087115;28;20734;-51
2022/07/03 10:06:52;;;;;;;1.38;1.27;;;29.90;88.40;;;;;;5079798;28;20306;-52
2022/07/03 10:09:23;;;;;;;2.15;1.30;;;30.10;88.00;;;;;;5087679;28;20204;-51
2022/07/03 10:11:53;;;;;;;3.33;1.20;;;30.20;90.30;;;;;;5086152;28;20277;-52
2022/07/03 10:14:23;;;;;;;1.92;1.63;;;29.80;89.80;;;;;;5088343;28;20719;-50
2022/07/03 10:16:52;;;;;;;2.40;1.48;;;29.70;89.20;;;;;;5088098;28;20218;-50
2022/07/03 10:19:22;;;;;;;3.72;1.30;;;29.90;90.10;;;;;;5087181;28;20208;-51
2022/07/03 10:21:53;;;;;;;1.55;1.30;;;30.20;90.90;;;;;;5090509;28;20221;-52
2022/07/03 10:24:23;;;;;;;2.03;1.48;;;30.30;89.60;;;;;;5089331;28;20208;-51
2022/07/03 10:26:53;;;;;;;1.98;1.15;;;30.20;88.60;;;;;;5088467;28;20226;-51
2022/07/03 10:29:23;;;;;;;2.75;1.55;;;30.30;88.50;;;;;;5093545;28;20207;-51
2022/07/03 10:31:57;;;;;;;4.10;1.15;;;30.50;89.60;;;;;;5090587;28;20219;-51
2022/07/03 10:34:27;;;;;;;1.13;1.02;;;30.60;87.00;;;;;;5084739;28;20208;-50
2022/07/03 10:36:59;;;;;;;3.42;1.58;;;30.70;88.70;;;;;;5089040;28;20205;-49
2022/07/03 10:39:39;;;;;;;2.63;1.25;;;30.70;84.00;;;;;;5093635;28;20684;-50
2022/07/03 10:45:07;;;;;;;3.33;1.35;;;30.60;84.90;;;;;;5085005;28;20259;-51
2022/07/03 10:47:44;;;;;;;2.13;1.33;;;30.40;83.10;;;;;;5086171;28;20274;-50
2022/07/03 10:50:14;;;;;;;2.25;1.33;;;30.40;87.10;;;;;;5089937;28;20249;-51
2022/07/03 10:52:44;;;;;;;2.28;1.83;;;30.10;85.60;;;;;;5089544;28;20257;-51
2022/07/03 10:55:14;;;;;;;1.70;1.50;;;30.00;86.80;;;;;;5086531;28;20208;-51
2022/07/03 10:58:04;;;;;;;2.22;1.40;;;29.80;87.00;;;;;;5085401;28;20246;-51
2022/07/03 11:00:51;;;;;;;1.58;1.48;;;29.90;88.90;;;;;;5082689;28;20218;-51
2022/07/03 11:03:54;;;;;;;1.73;1.50;;;30.30;90.10;;;;;;5091514;28;20817;-51
2022/07/03 11:06:43;;;;;;;1.83;1.40;;;30.60;90.40;;;;;;5093140;28;20228;-51
2022/07/03 11:09:13;;;;;;;1.58;1.38;;;30.70;85.80;;;;;;5080653;28;20230;-51
2022/07/03 11:11:58;;;;;;;2.17;1.77;;;30.50;86.90;;;;;;5082698;28;20284;-50
2022/07/03 11:14:29;;;;;;;1.77;1.20;;;30.50;87.10;;;;;;5081921;28;20247;-50
2022/07/03 11:17:19;;;;;;;2.38;1.40;;;30.60;88.00;;;;;;5079252;28;20251;-50
2022/07/03 11:22:37;;;;;;;1.45;1.30;;;30.50;86.10;;;;;;5078374;28;20726;-50
2022/07/03 11:25:09;;;;;;;1.73;1.20;;;30.40;89.20;;;;;;5080205;28;20276;-51
2022/07/03 11:27:37;;;;;;;3.38;1.35;;;30.40;89.90;;;;;;5078147;28;20225;-51
2022/07/03 11:30:07;;;;;;;4.93;1.70;;;30.30;85.60;;;;;;5079337;28;20257;-51
2022/07/03 11:32:46;;;;;;;1.40;1.30;;;30.10;86.00;;;;;;5076407;28;20229;-51
2022/07/03 11:35:53;;;;;;;2.88;1.30;;;30.10;88.40;;;;;;5080176;28;20196;-50
2022/07/03 11:38:29;;;;;;;2.60;1.30;;;30.00;87.30;;;;;;5078627;28;20204;-51
2022/07/03 11:40:59;;;;;;;1.65;1.38;;;30.20;88.20;;;;;;5086629;28;20573;-51
2022/07/03 11:43:27;;;;;;;1.83;1.15;;;30.40;84.30;;;;;;5085073;28;20266;-51
2022/07/03 11:45:57;;;;;;;2.92;1.30;;;30.60;84.50;;;;;;5077996;28;20250;-51
2022/07/03 11:48:26;;;;;;;1.63;1.20;;;30.70;86.10;;;;;;5076653;28;20228;-51
2022/07/03 11:51:00;;;;;;;1.65;1.08;;;30.40;83.40;;;;;;5076672;28;20744;-51
2022/07/03 11:53:31;;;;;;;1.10;0.90;;;30.20;83.90;;;;;;5081036;28;20280;-51
2022/07/03 11:56:00;;;;;;;1.40;1.10;;;29.90;85.70;;;;;;5079826;28;20205;-51
2022/07/03 11:58:42;;;;;;;1.63;1.23;;;29.90;87.20;;;;;;5085597;28;20723;-51
2022/07/03 12:01:12;;;;;;;3.10;1.30;;;29.80;83.80;;;;;;5087670;28;20224;-51
2022/07/03 12:03:40;;;;;;;3.13;1.55;;;29.60;83.10;;;;;;5091795;28;20205;-51
2022/07/03 12:06:08;;;;;;;2.63;1.35;;;29.40;85.80;;;;;;5091151;28;20212;-51
2022/07/03 12:08:37;;;;;;;2.78;1.35;;;29.40;87.70;;;;;;5091235;28;20221;-51
2022/07/03 12:11:10;;;;;;;1.58;1.00;;;29.70;88.20;;;;;;5078960;28;20229;-51
2022/07/03 12:13:38;;;;;;;2.55;1.20;;;30.00;87.10;;;;;;5078509;28;20275;-51
2022/07/03 12:16:09;;;;;;;1.50;1.10;;;30.10;82.60;;;;;;5082561;28;20211;-49
2022/07/03 12:18:51;;;;;;;1.30;1.20;;;29.90;83.00;;;;;;5080979;28;20693;-51
2022/07/03 12:21:20;;;;;;;4.82;1.48;;;29.60;83.30;;;;;;5077957;28;20235;-51
2022/07/03 12:23:50;;;;;;;2.83;1.45;;;29.50;83.80;;;;;;5081485;28;20235;-50
2022/07/03 12:26:30;;;;;;;1.60;1.48;;;29.30;82.20;;;;;;5083145;28;20266;-52
2022/07/03 12:28:59;;;;;;;3.05;1.40;;;29.10;84.10;;;;;;5088202;28;20261;-52
2022/07/03 12:31:29;;;;;;;4.15;1.15;;;29.40;87.30;;;;;;5087831;28;20216;-52
2022/07/03 12:33:59;;;;;;;2.40;1.42;;;29.60;85.50;;;;;;5088259;28;20235;-52
2022/07/03 12:36:29;;;;;;;2.63;1.40;;;29.90;88.40;;;;;;5086605;28;20207;-51
2022/07/03 12:38:58;;;;;;;3.25;1.17;;;30.10;86.40;;;;;;5086617;28;20200;-52
2022/07/03 12:41:27;;;;;;;2.10;0.93;;;30.10;83.90;;;;;;5088185;28;20700;-52
2022/07/03 12:43:56;;;;;;;1.92;1.48;;;30.20;81.10;;;;;;5089096;28;20621;-51
2022/07/03 12:46:26;;;;;;;1.10;1.10;;;30.00;84.10;;;;;;5088912;28;20208;-52
2022/07/03 12:48:55;;;;;;;1.23;1.10;;;29.70;83.00;;;;;;5089809;28;20769;-51
2022/07/03 12:51:45;;;;;;;2.65;1.42;;;29.80;86.00;;;;;;5089843;28;20262;-51
2022/07/03 12:54:15;;;;;;;1.48;1.30;;;29.80;81.50;;;;;;5090045;28;20200;-52
2022/07/03 12:56:44;;;;;;;2.17;1.30;;;30.00;82.30;;;;;;5090611;28;20204;-51
2022/07/03 12:59:24;;;;;;;1.38;1.27;;;30.30;86.40;;;;;;5088701;28;20204;-51
2022/07/03 13:02:05;;;;;;;2.60;1.38;;;30.50;84.50;;;;;;5089549;28;20281;-51
2022/07/03 13:04:35;;;;;;;1.60;1.30;;;30.40;83.60;;;;;;5088619;28;20283;-51
2022/07/03 13:07:06;;;;;;;6.10;1.40;;;30.30;82.90;;;;;;5089996;28;20281;-52
2022/07/03 13:09:36;;;;;;;2.03;1.30;;;30.00;83.40;;;;;;5088671;28;20275;-51
2022/07/03 13:12:05;;;;;;;1.52;1.15;;;29.90;83.80;;;;;;5089700;28;20276;-51
2022/07/03 13:14:33;;;;;;;1.77;1.10;;;29.90;83.30;;;;;;5090282;28;20204;-50
2022/07/03 13:17:01;;;;;;;3.63;1.40;;;29.80;82.30;;;;;;5089806;28;20204;-52
2022/07/03 13:19:57;;;;;;;1.40;1.20;;;29.50;82.50;;;;;;5090394;28;20557;-50